sensor_id;sensor_type;location;lat;lon;timestamp;temperature;humidity
61151;DHT22;47029;50.994;2.876;2022-12-07T00:01:13;6.40;99.90
61151;DHT22;47029;50.994;2.876;2022-12-07T00:03:42;6.30;99.90
61151;DHT22;47029;50.994;2.876;2022-12-07T00:06:12;6.20;99.90
61151;DHT22;47029;50.994;2.876;2022-12-07T00:08:40;6.30;99.90
61151;DHT22;47029;50.994;2.876;2022-12-07T00:11:09;6.40;99.90
61151;DHT22;47029;50.994;2.876;2022-12-07T00:13:37;6.40;99.90
61151;DHT22;47029;50.994;2.876;2022-12-07T00:16:09;6.20;99.90
61151;DHT22;47029;50.994;2.876;2022-12-07T00:18:37;6.10;99.90
61151;DHT22;47029;50.994;2.876;2022-12-07T00:21:07;5.80;99.90
61151;DHT22;47029;50.994;2.876;2022-12-07T00:23:35;5.60;99.90
61151;DHT22;47029;50.994;2.876;2022-12-07T00:26:07;5.60;99.90
61151;DHT22;47029;50.994;2.876;2022-12-07T00:28:35;5.60;99.90
61151;DHT22;47029;50.994;2.876;2022-12-07T00:31:09;5.70;99.90
61151;DHT22;47029;50.994;2.876;2022-12-07T00:33:35;5.80;99.90
61151;DHT22;47029;50.994;2.876;2022-12-07T00:36:09;5.80;99.90
61151;DHT22;47029;50.994;2.876;2022-12-07T00:38:37;6.10;99.90
61151;DHT22;47029;50.994;2.876;2022-12-07T00:41:07;6.10;99.90
61151;DHT22;47029;50.994;2.876;2022-12-07T00:43:35;6.20;99.90
61151;DHT22;47029;50.994;2.876;2022-12-07T00:46:02;6.10;99.90
61151;DHT22;47029;50.994;2.876;2022-12-07T00:48:32;6.10;99.90
61151;DHT22;47029;50.994;2.876;2022-12-07T00:51:00;6.00;99.90
61151;DHT22;47029;50.994;2.876;2022-12-07T00:53:27;5.90;99.90
61151;DHT22;47029;50.994;2.876;2022-12-07T00:55:55;5.80;99.90
61151;DHT22;47029;50.994;2.876;2022-12-07T00:58:24;5.80;99.90
61151;DHT22;47029;50.994;2.876;2022-12-07T01:00:50;5.80;99.90
61151;DHT22;47029;50.994;2.876;2022-12-07T01:03:16;5.80;99.90
61151;DHT22;47029;50.994;2.876;2022-12-07T01:05:51;5.60;99.90
61151;DHT22;47029;50.994;2.876;2022-12-07T01:08:18;5.90;99.90
61151;DHT22;47029;50.994;2.876;2022-12-07T01:10:44;5.80;99.90
61151;DHT22;47029;50.994;2.876;2022-12-07T01:13:10;5.60;99.90
61151;DHT22;47029;50.994;2.876;2022-12-07T01:15:41;5.60;99.90
61151;DHT22;47029;50.994;2.876;2022-12-07T01:18:09;5.70;99.90
61151;DHT22;47029;50.994;2.876;2022-12-07T01:20:35;5.80;99.90
61151;DHT22;47029;50.994;2.876;2022-12-07T01:23:01;6.00;99.90
61151;DHT22;47029;50.994;2.876;2022-12-07T01:25:27;6.20;99.90
61151;DHT22;47029;50.994;2.876;2022-12-07T01:27:54;6.40;99.90
61151;DHT22;47029;50.994;2.876;2022-12-07T01:30:21;6.10;99.90
61151;DHT22;47029;50.994;2.876;2022-12-07T01:32:48;6.10;99.90
61151;DHT22;47029;50.994;2.876;2022-12-07T01:35:15;6.10;99.90
61151;DHT22;47029;50.994;2.876;2022-12-07T01:37:41;6.20;99.90
61151;DHT22;47029;50.994;2.876;2022-12-07T01:40:09;6.10;99.90
61151;DHT22;47029;50.994;2.876;2022-12-07T01:42:36;6.10;99.90
61151;DHT22;47029;50.994;2.876;2022-12-07T01:45:37;6.10;99.90
61151;DHT22;47029;50.994;2.876;2022-12-07T01:48:04;6.10;99.90
61151;DHT22;47029;50.994;2.876;2022-12-07T01:50:31;5.90;99.90
61151;DHT22;47029;50.994;2.876;2022-12-07T01:52:59;6.00;99.90
61151;DHT22;47029;50.994;2.876;2022-12-07T01:55:29;6.00;99.90
61151;DHT22;47029;50.994;2.876;2022-12-07T01:57:56;6.00;99.90
61151;DHT22;47029;50.994;2.876;2022-12-07T02:00:25;6.10;99.90
61151;DHT22;47029;50.994;2.876;2022-12-07T02:03:05;6.10;99.90
61151;DHT22;47029;50.994;2.876;2022-12-07T02:05:35;6.00;99.90
61151;DHT22;47029;50.994;2.876;2022-12-07T02:08:05;6.00;99.90
61151;DHT22;47029;50.994;2.876;2022-12-07T02:10:33;5.90;99.90
61151;DHT22;47029;50.994;2.876;2022-12-07T02:13:20;5.80;99.90
61151;DHT22;47029;50.994;2.876;2022-12-07T02:30:35;5.70;99.90
61151;DHT22;47029;50.994;2.876;2022-12-07T02:32:56;4.10;99.90
61151;DHT22;47029;50.994;2.876;2022-12-07T02:40:42;5.90;99.90
61151;DHT22;47029;50.994;2.876;2022-12-07T02:45:53;6.20;99.90
61151;DHT22;47029;50.994;2.876;2022-12-07T02:48:21;6.00;99.90
61151;DHT22;47029;50.994;2.876;2022-12-07T02:50:51;6.20;99.90
61151;DHT22;47029;50.994;2.876;2022-12-07T02:53:39;6.10;99.90
61151;DHT22;47029;50.994;2.876;2022-12-07T02:59:48;6.70;99.90
61151;DHT22;47029;50.994;2.876;2022-12-07T03:02:01;6.40;99.90
61151;DHT22;47029;50.994;2.876;2022-12-07T03:04:52;6.10;99.90
61151;DHT22;47029;50.994;2.876;2022-12-07T03:13:12;6.10;99.90
61151;DHT22;47029;50.994;2.876;2022-12-07T03:15:58;6.40;99.90
61151;DHT22;47029;50.994;2.876;2022-12-07T03:18:30;6.00;99.90
61151;DHT22;47029;50.994;2.876;2022-12-07T03:21:02;6.30;99.90
61151;DHT22;47029;50.994;2.876;2022-12-07T03:23:32;6.10;99.90
61151;DHT22;47029;50.994;2.876;2022-12-07T03:26:03;6.10;99.90
61151;DHT22;47029;50.994;2.876;2022-12-07T03:28:34;6.20;99.90
61151;DHT22;47029;50.994;2.876;2022-12-07T03:31:09;6.30;99.90
61151;DHT22;47029;50.994;2.876;2022-12-07T03:34:05;6.30;99.90
61151;DHT22;47029;50.994;2.876;2022-12-07T03:36:40;6.10;99.90
61151;DHT22;47029;50.994;2.876;2022-12-07T03:39:24;6.30;99.90
61151;DHT22;47029;50.994;2.876;2022-12-07T03:41:54;6.30;99.90
61151;DHT22;47029;50.994;2.876;2022-12-07T03:44:22;6.30;99.90
61151;DHT22;47029;50.994;2.876;2022-12-07T03:47:03;6.30;99.90
61151;DHT22;47029;50.994;2.876;2022-12-07T03:49:45;6.30;99.90
61151;DHT22;47029;50.994;2.876;2022-12-07T03:52:22;6.30;99.90
61151;DHT22;47029;50.994;2.876;2022-12-07T03:55:20;6.40;99.90
61151;DHT22;47029;50.994;2.876;2022-12-07T03:57:55;6.40;99.90
61151;DHT22;47029;50.994;2.876;2022-12-07T04:00:25;6.30;99.90
61151;DHT22;47029;50.994;2.876;2022-12-07T04:02:55;6.40;99.90
61151;DHT22;47029;50.994;2.876;2022-12-07T04:05:23;6.40;99.90
61151;DHT22;47029;50.994;2.876;2022-12-07T04:07:49;6.40;99.90
61151;DHT22;47029;50.994;2.876;2022-12-07T04:10:16;6.40;99.90
61151;DHT22;47029;50.994;2.876;2022-12-07T04:12:43;6.50;99.90
61151;DHT22;47029;50.994;2.876;2022-12-07T04:15:10;6.60;99.90
61151;DHT22;47029;50.994;2.876;2022-12-07T04:17:36;6.50;99.90
61151;DHT22;47029;50.994;2.876;2022-12-07T04:20:04;6.40;99.90
61151;DHT22;47029;50.994;2.876;2022-12-07T04:22:31;6.40;99.90
61151;DHT22;47029;50.994;2.876;2022-12-07T04:24:58;6.50;99.90
61151;DHT22;47029;50.994;2.876;2022-12-07T04:27:25;6.70;99.90
61151;DHT22;47029;50.994;2.876;2022-12-07T04:29:52;6.80;99.90
61151;DHT22;47029;50.994;2.876;2022-12-07T04:32:19;6.90;99.90
61151;DHT22;47029;50.994;2.876;2022-12-07T04:34:45;7.00;99.90
61151;DHT22;47029;50.994;2.876;2022-12-07T04:37:11;7.00;99.90
61151;DHT22;47029;50.994;2.876;2022-12-07T04:39:40;7.10;99.90
61151;DHT22;47029;50.994;2.876;2022-12-07T04:42:06;6.80;99.90
61151;DHT22;47029;50.994;2.876;2022-12-07T04:44:34;7.10;99.90
61151;DHT22;47029;50.994;2.876;2022-12-07T04:47:01;7.20;99.90
61151;DHT22;47029;50.994;2.876;2022-12-07T04:49:32;6.70;99.90
61151;DHT22;47029;50.994;2.876;2022-12-07T04:52:00;6.60;99.90
61151;DHT22;47029;50.994;2.876;2022-12-07T04:54:26;6.60;99.90
61151;DHT22;47029;50.994;2.876;2022-12-07T04:56:53;6.80;99.90
61151;DHT22;47029;50.994;2.876;2022-12-07T04:59:20;6.70;99.90
61151;DHT22;47029;50.994;2.876;2022-12-07T05:01:46;6.80;99.90
61151;DHT22;47029;50.994;2.876;2022-12-07T05:04:13;6.90;99.90
61151;DHT22;47029;50.994;2.876;2022-12-07T05:06:39;7.20;99.90
61151;DHT22;47029;50.994;2.876;2022-12-07T05:09:05;7.10;99.90
61151;DHT22;47029;50.994;2.876;2022-12-07T05:11:31;7.10;99.90
61151;DHT22;47029;50.994;2.876;2022-12-07T05:16:36;7.10;99.90
61151;DHT22;47029;50.994;2.876;2022-12-07T05:19:02;7.00;99.90
61151;DHT22;47029;50.994;2.876;2022-12-07T05:21:28;7.10;99.90
61151;DHT22;47029;50.994;2.876;2022-12-07T05:23:55;7.00;99.90
61151;DHT22;47029;50.994;2.876;2022-12-07T05:26:22;7.00;99.90
61151;DHT22;47029;50.994;2.876;2022-12-07T05:28:56;7.00;99.90
61151;DHT22;47029;50.994;2.876;2022-12-07T05:31:24;7.00;99.90
61151;DHT22;47029;50.994;2.876;2022-12-07T05:33:51;7.00;99.90
61151;DHT22;47029;50.994;2.876;2022-12-07T05:36:18;7.00;99.90
61151;DHT22;47029;50.994;2.876;2022-12-07T05:38:45;7.00;99.90
61151;DHT22;47029;50.994;2.876;2022-12-07T05:41:15;7.00;99.90
61151;DHT22;47029;50.994;2.876;2022-12-07T05:44:01;7.00;99.90
61151;DHT22;47029;50.994;2.876;2022-12-07T05:46:28;7.00;99.90
61151;DHT22;47029;50.994;2.876;2022-12-07T05:48:55;7.10;99.90
61151;DHT22;47029;50.994;2.876;2022-12-07T05:51:21;6.90;99.90
61151;DHT22;47029;50.994;2.876;2022-12-07T05:53:48;7.00;99.90
61151;DHT22;47029;50.994;2.876;2022-12-07T05:56:17;6.90;99.90
61151;DHT22;47029;50.994;2.876;2022-12-07T05:58:45;7.00;99.90
61151;DHT22;47029;50.994;2.876;2022-12-07T06:01:30;7.10;99.90
61151;DHT22;47029;50.994;2.876;2022-12-07T06:03:57;7.20;99.90
61151;DHT22;47029;50.994;2.876;2022-12-07T06:06:23;6.90;99.90
61151;DHT22;47029;50.994;2.876;2022-12-07T06:08:50;7.00;99.90
61151;DHT22;47029;50.994;2.876;2022-12-07T06:11:20;6.90;99.90
61151;DHT22;47029;50.994;2.876;2022-12-07T06:14:05;6.90;99.90
61151;DHT22;47029;50.994;2.876;2022-12-07T06:16:32;7.10;99.90
61151;DHT22;47029;50.994;2.876;2022-12-07T06:18:58;7.00;99.90
61151;DHT22;47029;50.994;2.876;2022-12-07T06:21:25;6.90;99.90
61151;DHT22;47029;50.994;2.876;2022-12-07T06:23:52;7.00;99.90
61151;DHT22;47029;50.994;2.876;2022-12-07T06:26:18;6.90;99.90
61151;DHT22;47029;50.994;2.876;2022-12-07T06:28:47;6.90;99.90
61151;DHT22;47029;50.994;2.876;2022-12-07T06:31:13;6.80;99.90
61151;DHT22;47029;50.994;2.876;2022-12-07T06:33:40;6.90;99.90
61151;DHT22;47029;50.994;2.876;2022-12-07T06:36:06;5.30;99.90
61151;DHT22;47029;50.994;2.876;2022-12-07T06:38:33;7.00;99.90
61151;DHT22;47029;50.994;2.876;2022-12-07T06:41:00;7.00;99.90
61151;DHT22;47029;50.994;2.876;2022-12-07T06:43:27;7.00;99.90
61151;DHT22;47029;50.994;2.876;2022-12-07T06:45:53;7.00;99.90
61151;DHT22;47029;50.994;2.876;2022-12-07T06:48:19;7.10;99.90
61151;DHT22;47029;50.994;2.876;2022-12-07T06:50:47;7.10;99.90
61151;DHT22;47029;50.994;2.876;2022-12-07T06:53:15;7.10;99.90
61151;DHT22;47029;50.994;2.876;2022-12-07T06:55:42;7.10;99.90
61151;DHT22;47029;50.994;2.876;2022-12-07T06:58:09;7.00;99.90
61151;DHT22;47029;50.994;2.876;2022-12-07T07:00:35;7.10;99.90
61151;DHT22;47029;50.994;2.876;2022-12-07T07:03:01;7.10;99.90
61151;DHT22;47029;50.994;2.876;2022-12-07T07:05:28;7.10;99.90
61151;DHT22;47029;50.994;2.876;2022-12-07T07:07:55;7.20;99.90
61151;DHT22;47029;50.994;2.876;2022-12-07T07:10:22;7.20;99.90
61151;DHT22;47029;50.994;2.876;2022-12-07T07:12:48;7.30;99.90
61151;DHT22;47029;50.994;2.876;2022-12-07T07:15:15;7.30;99.90
61151;DHT22;47029;50.994;2.876;2022-12-07T07:17:42;7.20;99.90
61151;DHT22;47029;50.994;2.876;2022-12-07T07:20:09;7.30;99.90
61151;DHT22;47029;50.994;2.876;2022-12-07T07:22:35;7.10;99.90
61151;DHT22;47029;50.994;2.876;2022-12-07T07:25:02;6.90;99.90
61151;DHT22;47029;50.994;2.876;2022-12-07T07:27:32;7.10;99.90
61151;DHT22;47029;50.994;2.876;2022-12-07T07:30:03;6.90;99.90
61151;DHT22;47029;50.994;2.876;2022-12-07T07:32:37;7.30;99.90
61151;DHT22;47029;50.994;2.876;2022-12-07T07:35:06;7.00;99.90
61151;DHT22;47029;50.994;2.876;2022-12-07T07:37:35;7.00;99.90
61151;DHT22;47029;50.994;2.876;2022-12-07T07:40:10;7.40;99.90
61151;DHT22;47029;50.994;2.876;2022-12-07T07:42:40;7.10;99.90
61151;DHT22;47029;50.994;2.876;2022-12-07T07:45:15;6.90;99.90
61151;DHT22;47029;50.994;2.876;2022-12-07T07:47:44;6.70;99.90
61151;DHT22;47029;50.994;2.876;2022-12-07T07:50:19;6.60;99.90
61151;DHT22;47029;50.994;2.876;2022-12-07T07:52:48;6.50;99.90
61151;DHT22;47029;50.994;2.876;2022-12-07T07:55:24;6.70;99.90
61151;DHT22;47029;50.994;2.876;2022-12-07T07:57:58;6.60;99.90
61151;DHT22;47029;50.994;2.876;2022-12-07T08:00:33;6.60;99.90
61151;DHT22;47029;50.994;2.876;2022-12-07T08:03:02;6.50;99.90
61151;DHT22;47029;50.994;2.876;2022-12-07T08:05:32;6.50;99.90
61151;DHT22;47029;50.994;2.876;2022-12-07T08:08:09;6.50;99.90
61151;DHT22;47029;50.994;2.876;2022-12-07T08:10:45;6.10;99.90
61151;DHT22;47029;50.994;2.876;2022-12-07T08:13:22;6.30;99.90
61151;DHT22;47029;50.994;2.876;2022-12-07T08:15:52;6.30;99.90
61151;DHT22;47029;50.994;2.876;2022-12-07T08:18:22;6.40;99.90
61151;DHT22;47029;50.994;2.876;2022-12-07T08:20:59;6.60;99.90
61151;DHT22;47029;50.994;2.876;2022-12-07T08:23:34;6.50;99.90
61151;DHT22;47029;50.994;2.876;2022-12-07T08:26:13;6.60;99.90
61151;DHT22;47029;50.994;2.876;2022-12-07T08:28:43;6.70;99.90
61151;DHT22;47029;50.994;2.876;2022-12-07T08:31:20;6.90;99.90
61151;DHT22;47029;50.994;2.876;2022-12-07T08:33:49;7.00;99.90
61151;DHT22;47029;50.994;2.876;2022-12-07T08:36:27;7.20;99.90
61151;DHT22;47029;50.994;2.876;2022-12-07T08:38:57;7.50;99.90
61151;DHT22;47029;50.994;2.876;2022-12-07T08:41:27;7.40;99.90
61151;DHT22;47029;50.994;2.876;2022-12-07T08:43:57;6.90;99.90
61151;DHT22;47029;50.994;2.876;2022-12-07T08:46:44;7.10;99.90
61151;DHT22;47029;50.994;2.876;2022-12-07T08:49:38;7.00;99.90
61151;DHT22;47029;50.994;2.876;2022-12-07T08:52:10;6.80;99.90
61151;DHT22;47029;50.994;2.876;2022-12-07T08:54:47;5.70;99.90
61151;DHT22;47029;50.994;2.876;2022-12-07T08:57:26;6.80;99.90
61151;DHT22;47029;50.994;2.876;2022-12-07T09:00:04;6.90;99.90
61151;DHT22;47029;50.994;2.876;2022-12-07T09:02:40;6.90;99.90
61151;DHT22;47029;50.994;2.876;2022-12-07T09:05:09;7.00;99.90
61151;DHT22;47029;50.994;2.876;2022-12-07T09:07:48;7.10;99.90
61151;DHT22;47029;50.994;2.876;2022-12-07T09:10:25;7.30;99.90
61151;DHT22;47029;50.994;2.876;2022-12-07T09:13:00;7.60;99.90
61151;DHT22;47029;50.994;2.876;2022-12-07T09:15:38;7.30;99.90
61151;DHT22;47029;50.994;2.876;2022-12-07T09:18:13;7.50;99.90
61151;DHT22;47029;50.994;2.876;2022-12-07T09:20:49;7.40;99.90
61151;DHT22;47029;50.994;2.876;2022-12-07T09:23:17;7.50;99.90
61151;DHT22;47029;50.994;2.876;2022-12-07T09:25:53;7.80;99.90
61151;DHT22;47029;50.994;2.876;2022-12-07T09:28:22;7.50;99.90
61151;DHT22;47029;50.994;2.876;2022-12-07T09:30:52;7.80;99.90
61151;DHT22;47029;50.994;2.876;2022-12-07T09:33:27;7.80;99.90
61151;DHT22;47029;50.994;2.876;2022-12-07T09:35:56;7.40;99.90
61151;DHT22;47029;50.994;2.876;2022-12-07T09:38:33;7.90;99.90
61151;DHT22;47029;50.994;2.876;2022-12-07T09:41:06;7.50;99.90
61151;DHT22;47029;50.994;2.876;2022-12-07T09:43:42;7.40;99.90
61151;DHT22;47029;50.994;2.876;2022-12-07T09:46:15;7.10;99.90
61151;DHT22;47029;50.994;2.876;2022-12-07T09:48:47;7.20;99.90
61151;DHT22;47029;50.994;2.876;2022-12-07T09:51:23;7.40;99.90
61151;DHT22;47029;50.994;2.876;2022-12-07T09:53:52;7.60;99.90
61151;DHT22;47029;50.994;2.876;2022-12-07T09:56:20;8.10;99.90
61151;DHT22;47029;50.994;2.876;2022-12-07T09:58:58;7.40;99.90
61151;DHT22;47029;50.994;2.876;2022-12-07T10:01:29;7.80;99.90
61151;DHT22;47029;50.994;2.876;2022-12-07T10:04:14;7.70;99.90
61151;DHT22;47029;50.994;2.876;2022-12-07T10:06:49;7.80;99.90
61151;DHT22;47029;50.994;2.876;2022-12-07T10:09:20;7.70;99.90
61151;DHT22;47029;50.994;2.876;2022-12-07T10:12:09;7.70;99.90
61151;DHT22;47029;50.994;2.876;2022-12-07T10:15:02;7.50;99.90
61151;DHT22;47029;50.994;2.876;2022-12-07T10:17:40;7.50;99.90
61151;DHT22;47029;50.994;2.876;2022-12-07T10:20:16;7.90;99.90
61151;DHT22;47029;50.994;2.876;2022-12-07T10:23:01;7.50;99.90
61151;DHT22;47029;50.994;2.876;2022-12-07T10:25:36;7.10;99.90
61151;DHT22;47029;50.994;2.876;2022-12-07T10:33:38;7.80;99.90
61151;DHT22;47029;50.994;2.876;2022-12-07T10:39:12;7.50;99.90
61151;DHT22;47029;50.994;2.876;2022-12-07T10:41:57;7.50;99.90
61151;DHT22;47029;50.994;2.876;2022-12-07T10:44:33;7.30;99.90
61151;DHT22;47029;50.994;2.876;2022-12-07T10:47:20;7.50;99.90
61151;DHT22;47029;50.994;2.876;2022-12-07T10:53:09;7.40;99.90
61151;DHT22;47029;50.994;2.876;2022-12-07T10:58:53;7.80;99.90
61151;DHT22;47029;50.994;2.876;2022-12-07T11:01:41;8.10;99.90
61151;DHT22;47029;50.994;2.876;2022-12-07T11:10:30;8.00;99.90
61151;DHT22;47029;50.994;2.876;2022-12-07T11:13:22;7.30;99.90
61151;DHT22;47029;50.994;2.876;2022-12-07T11:21:24;7.50;99.90
61151;DHT22;47029;50.994;2.876;2022-12-07T11:24:12;7.60;99.90
61151;DHT22;47029;50.994;2.876;2022-12-07T11:32:36;7.60;99.90
61151;DHT22;47029;50.994;2.876;2022-12-07T11:38:31;7.70;99.90
61151;DHT22;47029;50.994;2.876;2022-12-07T11:41:05;7.80;99.90
61151;DHT22;47029;50.994;2.876;2022-12-07T11:44:11;7.70;99.90
61151;DHT22;47029;50.994;2.876;2022-12-07T11:46:45;7.90;99.90
61151;DHT22;47029;50.994;2.876;2022-12-07T11:49:27;7.60;99.90
61151;DHT22;47029;50.994;2.876;2022-12-07T11:52:02;7.80;99.90
61151;DHT22;47029;50.994;2.876;2022-12-07T11:54:34;7.80;99.90
61151;DHT22;47029;50.994;2.876;2022-12-07T11:57:07;7.80;99.90
61151;DHT22;47029;50.994;2.876;2022-12-07T11:59:43;7.80;99.90
61151;DHT22;47029;50.994;2.876;2022-12-07T12:02:35;7.70;99.90
61151;DHT22;47029;50.994;2.876;2022-12-07T12:05:17;7.80;99.90
61151;DHT22;47029;50.994;2.876;2022-12-07T12:07:48;8.00;99.90
61151;DHT22;47029;50.994;2.876;2022-12-07T12:10:24;8.00;99.90
61151;DHT22;47029;50.994;2.876;2022-12-07T12:16:13;8.00;99.90
61151;DHT22;47029;50.994;2.876;2022-12-07T12:18:58;7.80;99.90
61151;DHT22;47029;50.994;2.876;2022-12-07T12:21:29;7.70;99.90
61151;DHT22;47029;50.994;2.876;2022-12-07T12:24:11;7.80;99.90
61151;DHT22;47029;50.994;2.876;2022-12-07T12:26:52;7.60;99.90
61151;DHT22;47029;50.994;2.876;2022-12-07T12:29:26;7.60;99.90
61151;DHT22;47029;50.994;2.876;2022-12-07T12:35:27;7.90;99.90
61151;DHT22;47029;50.994;2.876;2022-12-07T12:37:55;7.80;99.90
61151;DHT22;47029;50.994;2.876;2022-12-07T12:42:55;8.00;99.90
61151;DHT22;47029;50.994;2.876;2022-12-07T12:45:29;7.90;99.90
61151;DHT22;47029;50.994;2.876;2022-12-07T12:50:28;8.00;99.90
61151;DHT22;47029;50.994;2.876;2022-12-07T12:53:00;8.00;99.90
61151;DHT22;47029;50.994;2.876;2022-12-07T13:00:46;8.00;99.90
61151;DHT22;47029;50.994;2.876;2022-12-07T13:03:27;8.10;99.90
61151;DHT22;47029;50.994;2.876;2022-12-07T13:08:43;8.20;99.90
61151;DHT22;47029;50.994;2.876;2022-12-07T13:11:25;8.20;99.90
61151;DHT22;47029;50.994;2.876;2022-12-07T13:16:58;8.10;99.90
61151;DHT22;47029;50.994;2.876;2022-12-07T13:19:55;8.00;99.90
61151;DHT22;47029;50.994;2.876;2022-12-07T13:24:57;8.00;99.90
61151;DHT22;47029;50.994;2.876;2022-12-07T13:27:25;8.30;99.90
61151;DHT22;47029;50.994;2.876;2022-12-07T13:29:51;8.20;99.90
61151;DHT22;47029;50.994;2.876;2022-12-07T13:32:28;8.20;99.90
61151;DHT22;47029;50.994;2.876;2022-12-07T13:34:55;8.30;99.90
61151;DHT22;47029;50.994;2.876;2022-12-07T13:37:28;8.50;99.90
61151;DHT22;47029;50.994;2.876;2022-12-07T13:39:58;8.60;99.90
61151;DHT22;47029;50.994;2.876;2022-12-07T13:42:34;8.50;99.90
61151;DHT22;47029;50.994;2.876;2022-12-07T13:45:21;8.70;99.90
61151;DHT22;47029;50.994;2.876;2022-12-07T13:47:58;8.70;99.90
61151;DHT22;47029;50.994;2.876;2022-12-07T13:50:30;8.40;99.90
61151;DHT22;47029;50.994;2.876;2022-12-07T13:53:00;8.30;99.90
61151;DHT22;47029;50.994;2.876;2022-12-07T13:55:28;8.20;99.90
61151;DHT22;47029;50.994;2.876;2022-12-07T13:57:55;8.30;99.90
61151;DHT22;47029;50.994;2.876;2022-12-07T14:00:25;8.20;99.90
61151;DHT22;47029;50.994;2.876;2022-12-07T14:05:32;8.00;99.90
61151;DHT22;47029;50.994;2.876;2022-12-07T14:08:04;8.10;99.90
61151;DHT22;47029;50.994;2.876;2022-12-07T14:13:00;8.00;99.90
61151;DHT22;47029;50.994;2.876;2022-12-07T14:15:33;8.00;99.90
61151;DHT22;47029;50.994;2.876;2022-12-07T14:18:02;8.00;99.90
61151;DHT22;47029;50.994;2.876;2022-12-07T14:22:59;7.90;99.90
61151;DHT22;47029;50.994;2.876;2022-12-07T14:25:48;7.90;99.90
61151;DHT22;47029;50.994;2.876;2022-12-07T14:28:36;8.00;99.90
61151;DHT22;47029;50.994;2.876;2022-12-07T14:31:04;8.20;99.90
61151;DHT22;47029;50.994;2.876;2022-12-07T14:33:34;8.10;99.90
61151;DHT22;47029;50.994;2.876;2022-12-07T14:36:01;8.00;99.90
61151;DHT22;47029;50.994;2.876;2022-12-07T14:38:29;8.00;99.90
61151;DHT22;47029;50.994;2.876;2022-12-07T14:40:57;7.70;99.90
61151;DHT22;47029;50.994;2.876;2022-12-07T14:43:45;8.10;99.90
61151;DHT22;47029;50.994;2.876;2022-12-07T14:46:11;7.70;99.90
61151;DHT22;47029;50.994;2.876;2022-12-07T14:48:39;7.50;99.90
61151;DHT22;47029;50.994;2.876;2022-12-07T14:51:05;7.60;99.90
61151;DHT22;47029;50.994;2.876;2022-12-07T14:53:40;7.70;99.90
61151;DHT22;47029;50.994;2.876;2022-12-07T14:56:07;7.80;99.90
61151;DHT22;47029;50.994;2.876;2022-12-07T14:58:34;7.70;99.90
61151;DHT22;47029;50.994;2.876;2022-12-07T15:01:00;7.70;99.90
61151;DHT22;47029;50.994;2.876;2022-12-07T15:03:26;7.60;99.90
61151;DHT22;47029;50.994;2.876;2022-12-07T15:05:52;7.60;99.90
61151;DHT22;47029;50.994;2.876;2022-12-07T15:08:18;7.80;99.90
61151;DHT22;47029;50.994;2.876;2022-12-07T15:10:44;7.90;99.90
61151;DHT22;47029;50.994;2.876;2022-12-07T15:13:10;7.90;99.90
61151;DHT22;47029;50.994;2.876;2022-12-07T15:15:55;7.90;99.90
61151;DHT22;47029;50.994;2.876;2022-12-07T15:18:22;7.90;99.90
61151;DHT22;47029;50.994;2.876;2022-12-07T15:20:49;7.70;99.90
61151;DHT22;47029;50.994;2.876;2022-12-07T15:23:15;7.80;99.90
61151;DHT22;47029;50.994;2.876;2022-12-07T15:25:43;7.80;99.90
61151;DHT22;47029;50.994;2.876;2022-12-07T15:28:09;7.80;99.90
61151;DHT22;47029;50.994;2.876;2022-12-07T15:30:38;7.60;99.90
61151;DHT22;47029;50.994;2.876;2022-12-07T15:33:05;7.50;99.90
61151;DHT22;47029;50.994;2.876;2022-12-07T15:35:31;7.60;99.90
61151;DHT22;47029;50.994;2.876;2022-12-07T15:37:57;7.50;99.90
61151;DHT22;47029;50.994;2.876;2022-12-07T15:40:23;7.30;99.90
61151;DHT22;47029;50.994;2.876;2022-12-07T15:42:49;7.20;99.90
61151;DHT22;47029;50.994;2.876;2022-12-07T15:45:15;7.40;99.90
61151;DHT22;47029;50.994;2.876;2022-12-07T15:47:43;7.10;99.90
61151;DHT22;47029;50.994;2.876;2022-12-07T15:50:13;7.00;99.90
61151;DHT22;47029;50.994;2.876;2022-12-07T15:52:40;7.10;99.90
61151;DHT22;47029;50.994;2.876;2022-12-07T15:55:06;7.10;99.90
61151;DHT22;47029;50.994;2.876;2022-12-07T15:57:34;7.00;99.90
61151;DHT22;47029;50.994;2.876;2022-12-07T16:00:00;7.10;99.90
61151;DHT22;47029;50.994;2.876;2022-12-07T16:02:26;7.20;99.90
61151;DHT22;47029;50.994;2.876;2022-12-07T16:04:53;7.20;99.90
61151;DHT22;47029;50.994;2.876;2022-12-07T16:07:19;7.10;99.90
61151;DHT22;47029;50.994;2.876;2022-12-07T16:09:46;7.10;99.90
61151;DHT22;47029;50.994;2.876;2022-12-07T16:12:13;7.00;99.90
61151;DHT22;47029;50.994;2.876;2022-12-07T16:14:40;7.00;99.90
61151;DHT22;47029;50.994;2.876;2022-12-07T16:17:07;6.90;99.90
61151;DHT22;47029;50.994;2.876;2022-12-07T16:19:34;6.80;99.90
61151;DHT22;47029;50.994;2.876;2022-12-07T16:22:00;6.60;99.90
61151;DHT22;47029;50.994;2.876;2022-12-07T16:24:26;6.60;99.90
61151;DHT22;47029;50.994;2.876;2022-12-07T16:26:52;6.70;99.90
61151;DHT22;47029;50.994;2.876;2022-12-07T16:29:19;6.70;99.90
61151;DHT22;47029;50.994;2.876;2022-12-07T16:31:46;6.80;99.90
61151;DHT22;47029;50.994;2.876;2022-12-07T16:34:12;6.90;99.90
61151;DHT22;47029;50.994;2.876;2022-12-07T16:36:39;7.10;99.90
61151;DHT22;47029;50.994;2.876;2022-12-07T16:39:06;7.20;99.90
61151;DHT22;47029;50.994;2.876;2022-12-07T16:41:34;7.40;99.90
61151;DHT22;47029;50.994;2.876;2022-12-07T16:44:03;7.30;99.90
61151;DHT22;47029;50.994;2.876;2022-12-07T16:46:32;7.40;99.90
61151;DHT22;47029;50.994;2.876;2022-12-07T16:49:00;7.50;99.90
61151;DHT22;47029;50.994;2.876;2022-12-07T16:51:27;7.20;99.90
61151;DHT22;47029;50.994;2.876;2022-12-07T16:53:55;7.20;99.90
61151;DHT22;47029;50.994;2.876;2022-12-07T16:56:22;7.00;99.90
61151;DHT22;47029;50.994;2.876;2022-12-07T16:58:48;7.00;99.90
61151;DHT22;47029;50.994;2.876;2022-12-07T17:01:22;7.00;99.90
61151;DHT22;47029;50.994;2.876;2022-12-07T17:03:53;6.80;99.90
61151;DHT22;47029;50.994;2.876;2022-12-07T17:06:22;6.80;99.90
61151;DHT22;47029;50.994;2.876;2022-12-07T17:08:49;7.00;99.90
61151;DHT22;47029;50.994;2.876;2022-12-07T17:11:20;7.00;99.90
61151;DHT22;47029;50.994;2.876;2022-12-07T17:13:48;6.90;99.90
61151;DHT22;47029;50.994;2.876;2022-12-07T17:16:32;6.80;99.90
61151;DHT22;47029;50.994;2.876;2022-12-07T17:18:58;6.90;99.90
61151;DHT22;47029;50.994;2.876;2022-12-07T17:21:25;6.70;99.90
61151;DHT22;47029;50.994;2.876;2022-12-07T17:23:52;6.80;99.90
61151;DHT22;47029;50.994;2.876;2022-12-07T17:26:21;6.90;99.90
61151;DHT22;47029;50.994;2.876;2022-12-07T17:28:47;6.80;99.90
61151;DHT22;47029;50.994;2.876;2022-12-07T17:31:15;6.80;99.90
61151;DHT22;47029;50.994;2.876;2022-12-07T17:33:43;6.70;99.90
61151;DHT22;47029;50.994;2.876;2022-12-07T17:36:12;6.70;99.90
61151;DHT22;47029;50.994;2.876;2022-12-07T17:38:39;6.70;99.90
61151;DHT22;47029;50.994;2.876;2022-12-07T17:41:15;6.80;99.90
61151;DHT22;47029;50.994;2.876;2022-12-07T17:44:06;6.60;99.90
61151;DHT22;47029;50.994;2.876;2022-12-07T17:46:33;6.50;99.90
61151;DHT22;47029;50.994;2.876;2022-12-07T17:49:01;6.50;99.90
61151;DHT22;47029;50.994;2.876;2022-12-07T17:51:29;6.30;99.90
61151;DHT22;47029;50.994;2.876;2022-12-07T17:54:14;6.70;99.90